sensor_id;sensor_type;location;lat;lon;timestamp;P1;durP1;ratioP1;P2;durP2;ratioP2
16480;SDS011;44634;54.110;12.138;2023-02-02T00:01:28;5.20;;;1.67;;
16480;SDS011;44634;54.110;12.138;2023-02-02T00:03:56;6.50;;;1.77;;
16480;SDS011;44634;54.110;12.138;2023-02-02T00:06:25;4.93;;;1.43;;
16480;SDS011;44634;54.110;12.138;2023-02-02T00:08:55;8.43;;;1.97;;
16480;SDS011;44634;54.110;12.138;2023-02-02T00:11:24;6.03;;;1.60;;
16480;SDS011;44634;54.110;12.138;2023-02-02T00:13:52;3.00;;;1.23;;
16480;SDS011;44634;54.110;12.138;2023-02-02T00:16:34;1.10;;;1.00;;
16480;SDS011;44634;54.110;12.138;2023-02-02T00:19:05;4.30;;;2.00;;
16480;SDS011;44634;54.110;12.138;2023-02-02T00:21:34;10.20;;;1.80;;
16480;SDS011;44634;54.110;12.138;2023-02-02T00:24:05;1.30;;;0.73;;
16480;SDS011;44634;54.110;12.138;2023-02-02T00:26:34;3.83;;;1.40;;
16480;SDS011;44634;54.110;12.138;2023-02-02T00:29:03;6.27;;;1.03;;
16480;SDS011;44634;54.110;12.138;2023-02-02T00:31:31;3.50;;;1.20;;
16480;SDS011;44634;54.110;12.138;2023-02-02T00:33:59;2.70;;;1.27;;
16480;SDS011;44634;54.110;12.138;2023-02-02T00:36:27;1.87;;;1.10;;
16480;SDS011;44634;54.110;12.138;2023-02-02T00:38:55;10.23;;;1.93;;
16480;SDS011;44634;54.110;12.138;2023-02-02T00:41:24;1.70;;;1.17;;
16480;SDS011;44634;54.110;12.138;2023-02-02T00:43:51;4.33;;;1.40;;
16480;SDS011;44634;54.110;12.138;2023-02-02T00:46:33;2.50;;;1.17;;
16480;SDS011;44634;54.110;12.138;2023-02-02T00:49:01;5.67;;;1.40;;
16480;SDS011;44634;54.110;12.138;2023-02-02T00:51:29;5.30;;;1.60;;
16480;SDS011;44634;54.110;12.138;2023-02-02T00:53:56;6.33;;;1.60;;
16480;SDS011;44634;54.110;12.138;2023-02-02T00:56:26;7.83;;;1.73;;
16480;SDS011;44634;54.110;12.138;2023-02-02T00:58:53;7.73;;;1.57;;
16480;SDS011;44634;54.110;12.138;2023-02-02T01:01:21;2.77;;;1.10;;
16480;SDS011;44634;54.110;12.138;2023-02-02T01:03:49;7.57;;;1.73;;
16480;SDS011;44634;54.110;12.138;2023-02-02T01:06:17;3.00;;;1.47;;
16480;SDS011;44634;54.110;12.138;2023-02-02T01:08:45;4.53;;;1.03;;
16480;SDS011;44634;54.110;12.138;2023-02-02T01:11:14;7.33;;;1.30;;
16480;SDS011;44634;54.110;12.138;2023-02-02T01:13:43;2.87;;;1.43;;
16480;SDS011;44634;54.110;12.138;2023-02-02T01:16:11;1.87;;;1.20;;
16480;SDS011;44634;54.110;12.138;2023-02-02T01:18:39;3.07;;;1.53;;
16480;SDS011;44634;54.110;12.138;2023-02-02T01:21:08;6.23;;;2.00;;
16480;SDS011;44634;54.110;12.138;2023-02-02T01:23:38;5.10;;;1.23;;
16480;SDS011;44634;54.110;12.138;2023-02-02T01:26:07;3.00;;;1.13;;
16480;SDS011;44634;54.110;12.138;2023-02-02T01:28:36;5.97;;;1.90;;
16480;SDS011;44634;54.110;12.138;2023-02-02T01:31:06;4.00;;;1.93;;
16480;SDS011;44634;54.110;12.138;2023-02-02T01:33:36;4.27;;;1.53;;
16480;SDS011;44634;54.110;12.138;2023-02-02T01:36:05;3.03;;;1.17;;
16480;SDS011;44634;54.110;12.138;2023-02-02T01:38:34;2.27;;;1.33;;
16480;SDS011;44634;54.110;12.138;2023-02-02T01:41:02;6.43;;;1.67;;
16480;SDS011;44634;54.110;12.138;2023-02-02T01:46:23;4.90;;;1.73;;
16480;SDS011;44634;54.110;12.138;2023-02-02T01:48:53;2.67;;;1.70;;
16480;SDS011;44634;54.110;12.138;2023-02-02T01:51:26;7.60;;;2.57;;
16480;SDS011;44634;54.110;12.138;2023-02-02T01:53:59;4.07;;;1.70;;
16480;SDS011;44634;54.110;12.138;2023-02-02T01:56:30;1.80;;;1.10;;
16480;SDS011;44634;54.110;12.138;2023-02-02T01:59:01;5.27;;;1.60;;
16480;SDS011;44634;54.110;12.138;2023-02-02T02:01:32;7.27;;;1.70;;
16480;SDS011;44634;54.110;12.138;2023-02-02T02:04:00;7.23;;;2.17;;
16480;SDS011;44634;54.110;12.138;2023-02-02T02:06:28;3.83;;;1.37;;
16480;SDS011;44634;54.110;12.138;2023-02-02T02:08:56;2.83;;;1.40;;
16480;SDS011;44634;54.110;12.138;2023-02-02T02:11:29;5.67;;;2.20;;
16480;SDS011;44634;54.110;12.138;2023-02-02T02:13:58;4.90;;;1.97;;
16480;SDS011;44634;54.110;12.138;2023-02-02T02:16:50;3.87;;;1.47;;
16480;SDS011;44634;54.110;12.138;2023-02-02T02:19:32;2.03;;;1.17;;
16480;SDS011;44634;54.110;12.138;2023-02-02T02:22:42;3.13;;;1.30;;
16480;SDS011;44634;54.110;12.138;2023-02-02T02:25:51;8.67;;;1.77;;
16480;SDS011;44634;54.110;12.138;2023-02-02T02:29:08;8.13;;;2.00;;
16480;SDS011;44634;54.110;12.138;2023-02-02T02:32:18;3.30;;;1.40;;
16480;SDS011;44634;54.110;12.138;2023-02-02T02:34:54;3.90;;;1.67;;
16480;SDS011;44634;54.110;12.138;2023-02-02T02:37:32;4.43;;;1.60;;
16480;SDS011;44634;54.110;12.138;2023-02-02T02:40:10;8.77;;;2.57;;
16480;SDS011;44634;54.110;12.138;2023-02-02T02:42:47;2.63;;;1.73;;
16480;SDS011;44634;54.110;12.138;2023-02-02T02:45:18;7.00;;;1.90;;
16480;SDS011;44634;54.110;12.138;2023-02-02T02:47:49;5.10;;;2.17;;
16480;SDS011;44634;54.110;12.138;2023-02-02T02:50:18;4.33;;;1.80;;
16480;SDS011;44634;54.110;12.138;2023-02-02T02:52:46;7.83;;;2.00;;
16480;SDS011;44634;54.110;12.138;2023-02-02T02:55:19;5.27;;;2.03;;
16480;SDS011;44634;54.110;12.138;2023-02-02T02:57:55;5.07;;;2.03;;
16480;SDS011;44634;54.110;12.138;2023-02-02T03:00:45;4.03;;;1.30;;
16480;SDS011;44634;54.110;12.138;2023-02-02T03:03:23;6.23;;;1.93;;
16480;SDS011;44634;54.110;12.138;2023-02-02T03:06:00;4.77;;;1.70;;
16480;SDS011;44634;54.110;12.138;2023-02-02T03:08:35;8.00;;;1.60;;
16480;SDS011;44634;54.110;12.138;2023-02-02T03:11:07;10.07;;;2.00;;
16480;SDS011;44634;54.110;12.138;2023-02-02T03:13:38;6.90;;;1.50;;
16480;SDS011;44634;54.110;12.138;2023-02-02T03:16:07;5.10;;;1.50;;
16480;SDS011;44634;54.110;12.138;2023-02-02T03:18:36;7.13;;;1.50;;
16480;SDS011;44634;54.110;12.138;2023-02-02T03:21:04;5.93;;;1.87;;
16480;SDS011;44634;54.110;12.138;2023-02-02T03:23:33;4.27;;;1.70;;
16480;SDS011;44634;54.110;12.138;2023-02-02T03:26:01;8.60;;;1.60;;
16480;SDS011;44634;54.110;12.138;2023-02-02T03:28:29;6.23;;;1.80;;
16480;SDS011;44634;54.110;12.138;2023-02-02T03:30:57;4.57;;;1.60;;
16480;SDS011;44634;54.110;12.138;2023-02-02T03:33:28;6.40;;;1.87;;
16480;SDS011;44634;54.110;12.138;2023-02-02T03:35:58;8.37;;;2.10;;
16480;SDS011;44634;54.110;12.138;2023-02-02T03:38:26;4.23;;;1.60;;
16480;SDS011;44634;54.110;12.138;2023-02-02T03:40:54;4.37;;;1.40;;
16480;SDS011;44634;54.110;12.138;2023-02-02T03:43:22;6.47;;;1.67;;
16480;SDS011;44634;54.110;12.138;2023-02-02T03:45:54;8.50;;;2.03;;
16480;SDS011;44634;54.110;12.138;2023-02-02T03:48:23;2.13;;;1.70;;
16480;SDS011;44634;54.110;12.138;2023-02-02T03:50:50;3.73;;;1.73;;
16480;SDS011;44634;54.110;12.138;2023-02-02T03:53:20;5.70;;;1.67;;
16480;SDS011;44634;54.110;12.138;2023-02-02T03:55:48;4.63;;;1.43;;
16480;SDS011;44634;54.110;12.138;2023-02-02T03:58:15;7.23;;;1.80;;
16480;SDS011;44634;54.110;12.138;2023-02-02T04:00:47;4.97;;;1.80;;
16480;SDS011;44634;54.110;12.138;2023-02-02T04:03:15;5.07;;;2.20;;
16480;SDS011;44634;54.110;12.138;2023-02-02T04:05:43;7.27;;;1.63;;
16480;SDS011;44634;54.110;12.138;2023-02-02T04:08:11;5.23;;;1.73;;
16480;SDS011;44634;54.110;12.138;2023-02-02T04:10:40;9.33;;;1.83;;
16480;SDS011;44634;54.110;12.138;2023-02-02T04:13:08;5.43;;;1.50;;
16480;SDS011;44634;54.110;12.138;2023-02-02T04:15:36;7.53;;;1.73;;
16480;SDS011;44634;54.110;12.138;2023-02-02T04:18:03;5.37;;;2.07;;
16480;SDS011;44634;54.110;12.138;2023-02-02T04:20:31;2.97;;;1.50;;
16480;SDS011;44634;54.110;12.138;2023-02-02T04:22:59;9.60;;;2.10;;
16480;SDS011;44634;54.110;12.138;2023-02-02T04:25:27;5.63;;;1.40;;
16480;SDS011;44634;54.110;12.138;2023-02-02T04:27:56;4.67;;;1.50;;
16480;SDS011;44634;54.110;12.138;2023-02-02T04:30:24;3.47;;;1.63;;
16480;SDS011;44634;54.110;12.138;2023-02-02T04:32:53;9.73;;;2.30;;
16480;SDS011;44634;54.110;12.138;2023-02-02T04:35:21;3.53;;;1.60;;
16480;SDS011;44634;54.110;12.138;2023-02-02T04:37:49;4.67;;;1.60;;
16480;SDS011;44634;54.110;12.138;2023-02-02T04:40:17;4.47;;;2.00;;
16480;SDS011;44634;54.110;12.138;2023-02-02T04:42:45;9.33;;;2.57;;
16480;SDS011;44634;54.110;12.138;2023-02-02T04:45:15;5.93;;;1.97;;
16480;SDS011;44634;54.110;12.138;2023-02-02T04:47:42;2.37;;;1.33;;
16480;SDS011;44634;54.110;12.138;2023-02-02T04:50:10;7.93;;;1.97;;
16480;SDS011;44634;54.110;12.138;2023-02-02T04:52:38;8.67;;;2.10;;
16480;SDS011;44634;54.110;12.138;2023-02-02T04:55:06;4.73;;;1.77;;
16480;SDS011;44634;54.110;12.138;2023-02-02T04:57:34;8.23;;;1.70;;
16480;SDS011;44634;54.110;12.138;2023-02-02T05:00:02;5.57;;;1.73;;
16480;SDS011;44634;54.110;12.138;2023-02-02T05:02:33;9.07;;;1.90;;
16480;SDS011;44634;54.110;12.138;2023-02-02T05:05:02;7.30;;;1.60;;
16480;SDS011;44634;54.110;12.138;2023-02-02T05:07:30;6.47;;;1.30;;
16480;SDS011;44634;54.110;12.138;2023-02-02T05:09:58;5.90;;;1.43;;
16480;SDS011;44634;54.110;12.138;2023-02-02T05:12:26;6.20;;;2.10;;
16480;SDS011;44634;54.110;12.138;2023-02-02T05:14:53;3.60;;;1.90;;
16480;SDS011;44634;54.110;12.138;2023-02-02T05:17:21;9.23;;;2.23;;
16480;SDS011;44634;54.110;12.138;2023-02-02T05:19:50;11.17;;;2.30;;
16480;SDS011;44634;54.110;12.138;2023-02-02T05:22:18;10.57;;;2.60;;
16480;SDS011;44634;54.110;12.138;2023-02-02T05:24:46;3.73;;;1.93;;
16480;SDS011;44634;54.110;12.138;2023-02-02T05:27:13;3.50;;;1.63;;
16480;SDS011;44634;54.110;12.138;2023-02-02T05:29:41;6.97;;;2.77;;
16480;SDS011;44634;54.110;12.138;2023-02-02T05:32:09;7.03;;;2.83;;
16480;SDS011;44634;54.110;12.138;2023-02-02T05:34:37;7.23;;;2.77;;
16480;SDS011;44634;54.110;12.138;2023-02-02T05:37:06;5.27;;;1.43;;
16480;SDS011;44634;54.110;12.138;2023-02-02T05:39:33;4.00;;;1.40;;
16480;SDS011;44634;54.110;12.138;2023-02-02T05:42:01;8.70;;;1.67;;
16480;SDS011;44634;54.110;12.138;2023-02-02T05:44:29;5.13;;;1.80;;
16480;SDS011;44634;54.110;12.138;2023-02-02T05:46:57;10.37;;;2.10;;
16480;SDS011;44634;54.110;12.138;2023-02-02T05:49:25;3.27;;;1.73;;
16480;SDS011;44634;54.110;12.138;2023-02-02T05:51:53;6.27;;;1.80;;
16480;SDS011;44634;54.110;12.138;2023-02-02T05:54:24;8.37;;;2.03;;
16480;SDS011;44634;54.110;12.138;2023-02-02T05:56:52;6.33;;;1.73;;
16480;SDS011;44634;54.110;12.138;2023-02-02T05:59:21;7.37;;;2.50;;
16480;SDS011;44634;54.110;12.138;2023-02-02T06:01:49;7.50;;;2.30;;
16480;SDS011;44634;54.110;12.138;2023-02-02T06:04:17;6.80;;;1.73;;
16480;SDS011;44634;54.110;12.138;2023-02-02T06:06:45;8.80;;;1.83;;
16480;SDS011;44634;54.110;12.138;2023-02-02T06:09:13;5.63;;;1.93;;
16480;SDS011;44634;54.110;12.138;2023-02-02T06:11:43;5.97;;;1.73;;
16480;SDS011;44634;54.110;12.138;2023-02-02T06:14:11;8.50;;;2.10;;
16480;SDS011;44634;54.110;12.138;2023-02-02T06:16:39;1.73;;;1.40;;
16480;SDS011;44634;54.110;12.138;2023-02-02T06:19:07;10.30;;;1.93;;
16480;SDS011;44634;54.110;12.138;2023-02-02T06:21:34;11.23;;;2.27;;
16480;SDS011;44634;54.110;12.138;2023-02-02T06:24:02;8.23;;;2.17;;
16480;SDS011;44634;54.110;12.138;2023-02-02T06:26:30;8.43;;;1.80;;
16480;SDS011;44634;54.110;12.138;2023-02-02T06:29:00;8.83;;;2.07;;
16480;SDS011;44634;54.110;12.138;2023-02-02T06:31:28;11.33;;;2.47;;
16480;SDS011;44634;54.110;12.138;2023-02-02T06:33:56;7.30;;;1.80;;
16480;SDS011;44634;54.110;12.138;2023-02-02T06:36:25;8.77;;;1.70;;
16480;SDS011;44634;54.110;12.138;2023-02-02T06:38:54;11.50;;;2.10;;
16480;SDS011;44634;54.110;12.138;2023-02-02T06:41:23;9.23;;;1.97;;
16480;SDS011;44634;54.110;12.138;2023-02-02T06:43:51;8.80;;;2.50;;
16480;SDS011;44634;54.110;12.138;2023-02-02T06:46:20;6.87;;;2.00;;
16480;SDS011;44634;54.110;12.138;2023-02-02T06:48:48;6.30;;;1.67;;
16480;SDS011;44634;54.110;12.138;2023-02-02T06:51:16;6.47;;;1.83;;
16480;SDS011;44634;54.110;12.138;2023-02-02T06:53:45;6.90;;;1.13;;
16480;SDS011;44634;54.110;12.138;2023-02-02T06:56:14;8.00;;;2.10;;
16480;SDS011;44634;54.110;12.138;2023-02-02T06:58:42;5.37;;;1.90;;
16480;SDS011;44634;54.110;12.138;2023-02-02T07:01:11;6.60;;;1.73;;
16480;SDS011;44634;54.110;12.138;2023-02-02T07:03:41;6.63;;;1.63;;
16480;SDS011;44634;54.110;12.138;2023-02-02T07:06:10;11.37;;;2.10;;
16480;SDS011;44634;54.110;12.138;2023-02-02T07:08:39;9.17;;;2.60;;
16480;SDS011;44634;54.110;12.138;2023-02-02T07:11:07;7.50;;;1.77;;
16480;SDS011;44634;54.110;12.138;2023-02-02T07:13:41;7.00;;;2.50;;
16480;SDS011;44634;54.110;12.138;2023-02-02T07:16:10;8.97;;;1.97;;
16480;SDS011;44634;54.110;12.138;2023-02-02T07:18:39;10.43;;;2.57;;
16480;SDS011;44634;54.110;12.138;2023-02-02T07:21:09;19.17;;;3.37;;
16480;SDS011;44634;54.110;12.138;2023-02-02T07:23:43;4.93;;;1.73;;
16480;SDS011;44634;54.110;12.138;2023-02-02T07:26:10;8.47;;;2.10;;
16480;SDS011;44634;54.110;12.138;2023-02-02T07:28:39;13.40;;;2.43;;
16480;SDS011;44634;54.110;12.138;2023-02-02T07:31:11;13.80;;;2.50;;
16480;SDS011;44634;54.110;12.138;2023-02-02T07:33:40;6.50;;;2.13;;
16480;SDS011;44634;54.110;12.138;2023-02-02T07:36:10;10.77;;;2.17;;
16480;SDS011;44634;54.110;12.138;2023-02-02T07:38:38;11.83;;;2.33;;
16480;SDS011;44634;54.110;12.138;2023-02-02T07:41:06;14.80;;;2.83;;
16480;SDS011;44634;54.110;12.138;2023-02-02T07:43:34;9.77;;;2.40;;
16480;SDS011;44634;54.110;12.138;2023-02-02T07:46:03;11.30;;;3.00;;
16480;SDS011;44634;54.110;12.138;2023-02-02T07:48:33;6.43;;;1.90;;
16480;SDS011;44634;54.110;12.138;2023-02-02T07:51:02;3.93;;;1.43;;
16480;SDS011;44634;54.110;12.138;2023-02-02T07:53:32;10.03;;;2.73;;
16480;SDS011;44634;54.110;12.138;2023-02-02T07:56:07;15.87;;;2.17;;
16480;SDS011;44634;54.110;12.138;2023-02-02T07:58:36;13.73;;;2.00;;
16480;SDS011;44634;54.110;12.138;2023-02-02T08:01:05;4.40;;;1.40;;
16480;SDS011;44634;54.110;12.138;2023-02-02T08:03:34;7.67;;;1.43;;
16480;SDS011;44634;54.110;12.138;2023-02-02T08:06:07;12.87;;;2.20;;
16480;SDS011;44634;54.110;12.138;2023-02-02T08:08:39;2.83;;;1.20;;
16480;SDS011;44634;54.110;12.138;2023-02-02T08:11:06;5.47;;;1.67;;
16480;SDS011;44634;54.110;12.138;2023-02-02T08:13:36;3.23;;;1.50;;
16480;SDS011;44634;54.110;12.138;2023-02-02T08:16:04;1.90;;;1.10;;
16480;SDS011;44634;54.110;12.138;2023-02-02T08:18:32;3.77;;;1.23;;
16480;SDS011;44634;54.110;12.138;2023-02-02T08:21:00;2.57;;;1.60;;
16480;SDS011;44634;54.110;12.138;2023-02-02T08:23:29;3.77;;;1.50;;
16480;SDS011;44634;54.110;12.138;2023-02-02T08:26:05;2.03;;;1.83;;
16480;SDS011;44634;54.110;12.138;2023-02-02T08:28:34;2.73;;;1.30;;
16480;SDS011;44634;54.110;12.138;2023-02-02T08:31:03;1.57;;;1.13;;
16480;SDS011;44634;54.110;12.138;2023-02-02T08:33:31;3.40;;;1.40;;
16480;SDS011;44634;54.110;12.138;2023-02-02T08:35:59;2.83;;;1.67;;
16480;SDS011;44634;54.110;12.138;2023-02-02T08:38:27;2.97;;;1.30;;
16480;SDS011;44634;54.110;12.138;2023-02-02T08:40:55;5.77;;;1.10;;
16480;SDS011;44634;54.110;12.138;2023-02-02T08:43:25;2.97;;;1.47;;
16480;SDS011;44634;54.110;12.138;2023-02-02T08:45:52;5.73;;;1.53;;
16480;SDS011;44634;54.110;12.138;2023-02-02T08:48:30;3.83;;;1.57;;
16480;SDS011;44634;54.110;12.138;2023-02-02T08:50:58;2.57;;;1.57;;
16480;SDS011;44634;54.110;12.138;2023-02-02T08:53:27;5.00;;;1.20;;
16480;SDS011;44634;54.110;12.138;2023-02-02T08:55:58;2.53;;;1.57;;
16480;SDS011;44634;54.110;12.138;2023-02-02T08:58:28;5.30;;;1.53;;
16480;SDS011;44634;54.110;12.138;2023-02-02T09:01:02;2.30;;;1.40;;
16480;SDS011;44634;54.110;12.138;2023-02-02T09:03:31;3.23;;;1.60;;
16480;SDS011;44634;54.110;12.138;2023-02-02T09:06:02;2.50;;;1.50;;
16480;SDS011;44634;54.110;12.138;2023-02-02T09:08:30;3.50;;;1.57;;
16480;SDS011;44634;54.110;12.138;2023-02-02T09:11:05;3.57;;;1.77;;
16480;SDS011;44634;54.110;12.138;2023-02-02T09:13:36;4.50;;;1.70;;
16480;SDS011;44634;54.110;12.138;2023-02-02T09:16:06;7.27;;;2.50;;
16480;SDS011;44634;54.110;12.138;2023-02-02T09:18:37;3.00;;;1.70;;
16480;SDS011;44634;54.110;12.138;2023-02-02T09:21:05;3.03;;;1.60;;
16480;SDS011;44634;54.110;12.138;2023-02-02T09:23:35;3.03;;;1.40;;
16480;SDS011;44634;54.110;12.138;2023-02-02T09:26:08;4.70;;;1.70;;
16480;SDS011;44634;54.110;12.138;2023-02-02T09:28:38;1.60;;;1.10;;
16480;SDS011;44634;54.110;12.138;2023-02-02T09:31:07;4.77;;;2.47;;
16480;SDS011;44634;54.110;12.138;2023-02-02T09:33:36;1.50;;;1.33;;
16480;SDS011;44634;54.110;12.138;2023-02-02T09:36:05;2.83;;;1.43;;
16480;SDS011;44634;54.110;12.138;2023-02-02T09:38:33;1.33;;;0.90;;
16480;SDS011;44634;54.110;12.138;2023-02-02T09:41:09;1.67;;;1.50;;
16480;SDS011;44634;54.110;12.138;2023-02-02T09:43:56;1.50;;;0.90;;
16480;SDS011;44634;54.110;12.138;2023-02-02T09:46:35;1.23;;;1.00;;
16480;SDS011;44634;54.110;12.138;2023-02-02T09:49:14;1.33;;;1.17;;
16480;SDS011;44634;54.110;12.138;2023-02-02T09:51:47;0.67;;;0.57;;
16480;SDS011;44634;54.110;12.138;2023-02-02T09:54:23;1.93;;;1.20;;
16480;SDS011;44634;54.110;12.138;2023-02-02T09:56:54;3.00;;;1.00;;
16480;SDS011;44634;54.110;12.138;2023-02-02T09:59:26;0.83;;;0.83;;
16480;SDS011;44634;54.110;12.138;2023-02-02T10:02:01;1.07;;;1.00;;
16480;SDS011;44634;54.110;12.138;2023-02-02T10:04:34;8.10;;;1.40;;
16480;SDS011;44634;54.110;12.138;2023-02-02T10:07:05;2.70;;;0.97;;
16480;SDS011;44634;54.110;12.138;2023-02-02T10:09:38;3.33;;;1.00;;
16480;SDS011;44634;54.110;12.138;2023-02-02T10:12:16;5.80;;;1.30;;
16480;SDS011;44634;54.110;12.138;2023-02-02T10:14:54;1.03;;;0.90;;
16480;SDS011;44634;54.110;12.138;2023-02-02T10:17:31;6.23;;;1.10;;
16480;SDS011;44634;54.110;12.138;2023-02-02T10:20:20;1.90;;;1.00;;
16480;SDS011;44634;54.110;12.138;2023-02-02T10:22:57;5.53;;;2.07;;
16480;SDS011;44634;54.110;12.138;2023-02-02T10:25:30;2.07;;;1.00;;
16480;SDS011;44634;54.110;12.138;2023-02-02T10:28:03;1.03;;;0.90;;
16480;SDS011;44634;54.110;12.138;2023-02-02T10:30:41;1.73;;;1.07;;
16480;SDS011;44634;54.110;12.138;2023-02-02T10:33:14;2.10;;;0.93;;
16480;SDS011;44634;54.110;12.138;2023-02-02T10:35:53;1.70;;;1.20;;
16480;SDS011;44634;54.110;12.138;2023-02-02T10:38:29;3.07;;;1.27;;
16480;SDS011;44634;54.110;12.138;2023-02-02T10:41:06;2.87;;;0.80;;
16480;SDS011;44634;54.110;12.138;2023-02-02T10:43:50;0.70;;;0.70;;
16480;SDS011;44634;54.110;12.138;2023-02-02T10:46:29;0.80;;;0.80;;
16480;SDS011;44634;54.110;12.138;2023-02-02T10:49:09;2.60;;;0.80;;
16480;SDS011;44634;54.110;12.138;2023-02-02T10:51:43;6.03;;;1.00;;
16480;SDS011;44634;54.110;12.138;2023-02-02T10:54:21;2.50;;;1.00;;
16480;SDS011;44634;54.110;12.138;2023-02-02T10:57:06;2.10;;;1.37;;
16480;SDS011;44634;54.110;12.138;2023-02-02T10:59:38;4.93;;;0.87;;
16480;SDS011;44634;54.110;12.138;2023-02-02T11:02:13;1.20;;;1.10;;
16480;SDS011;44634;54.110;12.138;2023-02-02T11:04:46;3.57;;;1.07;;
16480;SDS011;44634;54.110;12.138;2023-02-02T11:07:32;4.10;;;1.30;;
16480;SDS011;44634;54.110;12.138;2023-02-02T11:09:59;1.03;;;0.83;;
16480;SDS011;44634;54.110;12.138;2023-02-02T11:12:27;2.33;;;0.93;;
16480;SDS011;44634;54.110;12.138;2023-02-02T11:15:00;2.00;;;0.80;;
16480;SDS011;44634;54.110;12.138;2023-02-02T11:17:32;2.03;;;0.90;;
16480;SDS011;44634;54.110;12.138;2023-02-02T11:20:00;1.27;;;0.73;;
16480;SDS011;44634;54.110;12.138;2023-02-02T11:22:29;1.63;;;0.77;;
16480;SDS011;44634;54.110;12.138;2023-02-02T11:25:00;3.67;;;1.00;;
16480;SDS011;44634;54.110;12.138;2023-02-02T11:27:30;2.33;;;0.60;;
16480;SDS011;44634;54.110;12.138;2023-02-02T11:30:04;1.27;;;1.00;;
16480;SDS011;44634;54.110;12.138;2023-02-02T11:32:39;1.70;;;0.80;;
16480;SDS011;44634;54.110;12.138;2023-02-02T11:35:18;3.60;;;1.13;;
16480;SDS011;44634;54.110;12.138;2023-02-02T11:37:51;2.70;;;1.00;;
16480;SDS011;44634;54.110;12.138;2023-02-02T11:40:26;4.23;;;1.00;;
16480;SDS011;44634;54.110;12.138;2023-02-02T11:42:59;1.53;;;1.07;;
16480;SDS011;44634;54.110;12.138;2023-02-02T11:45:32;2.73;;;0.80;;
16480;SDS011;44634;54.110;12.138;2023-02-02T11:48:05;1.53;;;0.97;;
16480;SDS011;44634;54.110;12.138;2023-02-02T11:50:43;2.23;;;0.90;;
16480;SDS011;44634;54.110;12.138;2023-02-02T11:53:19;1.20;;;1.10;;
16480;SDS011;44634;54.110;12.138;2023-02-02T11:55:49;4.30;;;0.70;;
16480;SDS011;44634;54.110;12.138;2023-02-02T11:58:19;4.80;;;1.03;;
16480;SDS011;44634;54.110;12.138;2023-02-02T12:00:53;2.63;;;0.70;;
16480;SDS011;44634;54.110;12.138;2023-02-02T12:03:25;3.90;;;0.90;;
16480;SDS011;44634;54.110;12.138;2023-02-02T12:05:56;3.83;;;0.97;;
16480;SDS011;44634;54.110;12.138;2023-02-02T12:08:24;2.03;;;0.70;;
16480;SDS011;44634;54.110;12.138;2023-02-02T12:10:53;3.33;;;1.10;;
16480;SDS011;44634;54.110;12.138;2023-02-02T12:16:23;2.40;;;0.83;;
16480;SDS011;44634;54.110;12.138;2023-02-02T12:19:17;1.93;;;0.80;;
16480;SDS011;44634;54.110;12.138;2023-02-02T12:22:00;6.50;;;0.97;;
16480;SDS011;44634;54.110;12.138;2023-02-02T12:24:38;3.23;;;1.13;;
16480;SDS011;44634;54.110;12.138;2023-02-02T12:27:14;2.03;;;0.90;;
16480;SDS011;44634;54.110;12.138;2023-02-02T12:29:53;2.23;;;1.17;;
16480;SDS011;44634;54.110;12.138;2023-02-02T12:32:43;2.50;;;0.93;;
16480;SDS011;44634;54.110;12.138;2023-02-02T12:35:22;1.13;;;0.80;;
16480;SDS011;44634;54.110;12.138;2023-02-02T12:38:05;2.27;;;0.80;;
16480;SDS011;44634;54.110;12.138;2023-02-02T12:43:43;3.17;;;1.07;;
16480;SDS011;44634;54.110;12.138;2023-02-02T12:46:18;1.20;;;0.80;;
16480;SDS011;44634;54.110;12.138;2023-02-02T12:48:56;2.23;;;1.00;;
16480;SDS011;44634;54.110;12.138;2023-02-02T12:51:45;2.80;;;0.97;;
16480;SDS011;44634;54.110;12.138;2023-02-02T12:54:35;2.03;;;0.83;;
16480;SDS011;44634;54.110;12.138;2023-02-02T12:57:20;0.97;;;0.90;;
16480;SDS011;44634;54.110;12.138;2023-02-02T13:00:06;3.43;;;0.90;;
16480;SDS011;44634;54.110;12.138;2023-02-02T13:02:43;2.80;;;1.07;;
16480;SDS011;44634;54.110;12.138;2023-02-02T13:05:28;2.03;;;0.90;;
16480;SDS011;44634;54.110;12.138;2023-02-02T13:08:07;1.23;;;1.13;;
16480;SDS011;44634;54.110;12.138;2023-02-02T13:10:39;2.20;;;0.90;;
16480;SDS011;44634;54.110;12.138;2023-02-02T13:13:10;3.20;;;1.13;;
16480;SDS011;44634;54.110;12.138;2023-02-02T13:15:43;3.57;;;1.07;;
16480;SDS011;44634;54.110;12.138;2023-02-02T13:18:16;1.80;;;0.80;;
16480;SDS011;44634;54.110;12.138;2023-02-02T13:20:47;1.00;;;0.80;;
16480;SDS011;44634;54.110;12.138;2023-02-02T13:23:21;4.77;;;1.00;;
16480;SDS011;44634;54.110;12.138;2023-02-02T13:25:55;4.03;;;1.27;;
16480;SDS011;44634;54.110;12.138;2023-02-02T13:28:30;2.43;;;1.10;;
16480;SDS011;44634;54.110;12.138;2023-02-02T13:31:04;2.43;;;1.00;;
16480;SDS011;44634;54.110;12.138;2023-02-02T13:33:37;1.47;;;0.93;;
16480;SDS011;44634;54.110;12.138;2023-02-02T13:36:07;1.43;;;0.90;;
16480;SDS011;44634;54.110;12.138;2023-02-02T13:38:43;1.00;;;1.00;;
16480;SDS011;44634;54.110;12.138;2023-02-02T13:41:11;2.33;;;1.50;;
16480;SDS011;44634;54.110;12.138;2023-02-02T13:43:42;3.53;;;1.00;;
16480;SDS011;44634;54.110;12.138;2023-02-02T13:46:21;3.00;;;1.07;;
16480;SDS011;44634;54.110;12.138;2023-02-02T13:48:56;1.07;;;0.80;;
16480;SDS011;44634;54.110;12.138;2023-02-02T13:51:38;0.73;;;0.73;;
16480;SDS011;44634;54.110;12.138;2023-02-02T13:54:26;2.70;;;1.10;;
16480;SDS011;44634;54.110;12.138;2023-02-02T13:57:24;2.03;;;0.77;;
16480;SDS011;44634;54.110;12.138;2023-02-02T14:00:03;3.10;;;1.00;;
16480;SDS011;44634;54.110;12.138;2023-02-02T14:02:42;2.73;;;1.20;;
16480;SDS011;44634;54.110;12.138;2023-02-02T14:05:19;2.73;;;1.37;;
16480;SDS011;44634;54.110;12.138;2023-02-02T14:07:55;2.13;;;0.73;;
16480;SDS011;44634;54.110;12.138;2023-02-02T14:10:31;1.23;;;1.07;;
16480;SDS011;44634;54.110;12.138;2023-02-02T14:13:05;1.90;;;0.80;;
16480;SDS011;44634;54.110;12.138;2023-02-02T14:15:55;2.33;;;0.80;;
16480;SDS011;44634;54.110;12.138;2023-02-02T14:30:29;1.77;;;1.30;;
16480;SDS011;44634;54.110;12.138;2023-02-02T14:36:02;2.67;;;1.33;;
16480;SDS011;44634;54.110;12.138;2023-02-02T14:38:47;0.93;;;0.90;;
16480;SDS011;44634;54.110;12.138;2023-02-02T14:41:37;1.63;;;1.43;;
16480;SDS011;44634;54.110;12.138;2023-02-02T14:44:35;5.87;;;1.37;;
16480;SDS011;44634;54.110;12.138;2023-02-02T14:47:46;2.43;;;1.23;;
16480;SDS011;44634;54.110;12.138;2023-02-02T14:50:19;3.47;;;1.30;;
16480;SDS011;44634;54.110;12.138;2023-02-02T14:53:00;0.90;;;0.87;;
16480;SDS011;44634;54.110;12.138;2023-02-02T14:55:31;4.20;;;1.53;;
16480;SDS011;44634;54.110;12.138;2023-02-02T14:58:00;4.87;;;1.20;;
16480;SDS011;44634;54.110;12.138;2023-02-02T15:00:31;6.77;;;1.50;;
16480;SDS011;44634;54.110;12.138;2023-02-02T15:06:00;6.27;;;1.40;;
16480;SDS011;44634;54.110;12.138;2023-02-02T15:08:30;2.73;;;1.37;;
16480;SDS011;44634;54.110;12.138;2023-02-02T15:10:59;3.83;;;1.30;;
16480;SDS011;44634;54.110;12.138;2023-02-02T15:14:04;4.00;;;1.50;;
16480;SDS011;44634;54.110;12.138;2023-02-02T15:16:39;1.63;;;1.37;;
16480;SDS011;44634;54.110;12.138;2023-02-02T15:19:14;1.23;;;1.13;;
16480;SDS011;44634;54.110;12.138;2023-02-02T15:21:54;2.33;;;1.37;;
16480;SDS011;44634;54.110;12.138;2023-02-02T15:24:26;6.23;;;1.20;;
16480;SDS011;44634;54.110;12.138;2023-02-02T15:26:57;1.40;;;1.30;;
16480;SDS011;44634;54.110;12.138;2023-02-02T15:29:32;2.10;;;1.40;;
16480;SDS011;44634;54.110;12.138;2023-02-02T15:32:10;4.73;;;1.30;;